sensor_id;sensor_type;location;lat;lon;timestamp;P1;durP1;ratioP1;P2;durP2;ratioP2
71629;SDS011;59479;51.902;8.212;2022-10-19T00:00:48;6.45;;;3.00;;
71629;SDS011;59479;51.902;8.212;2022-10-19T00:03:14;6.83;;;3.37;;
71629;SDS011;59479;51.902;8.212;2022-10-19T00:05:40;7.50;;;2.75;;
71629;SDS011;59479;51.902;8.212;2022-10-19T00:08:05;6.33;;;3.33;;
71629;SDS011;59479;51.902;8.212;2022-10-19T00:10:31;6.97;;;3.05;;
71629;SDS011;59479;51.902;8.212;2022-10-19T00:12:56;6.43;;;3.30;;
71629;SDS011;59479;51.902;8.212;2022-10-19T00:15:22;9.27;;;3.20;;
71629;SDS011;59479;51.902;8.212;2022-10-19T00:17:47;6.33;;;3.00;;
71629;SDS011;59479;51.902;8.212;2022-10-19T00:20:13;9.17;;;3.73;;
71629;SDS011;59479;51.902;8.212;2022-10-19T00:22:38;6.63;;;3.27;;
71629;SDS011;59479;51.902;8.212;2022-10-19T00:25:03;6.33;;;3.13;;
71629;SDS011;59479;51.902;8.212;2022-10-19T00:27:29;5.72;;;3.05;;
71629;SDS011;59479;51.902;8.212;2022-10-19T00:29:54;8.85;;;3.55;;
71629;SDS011;59479;51.902;8.212;2022-10-19T00:32:20;5.70;;;2.90;;
71629;SDS011;59479;51.902;8.212;2022-10-19T00:34:46;6.10;;;3.40;;
71629;SDS011;59479;51.902;8.212;2022-10-19T00:37:11;6.80;;;3.47;;
71629;SDS011;59479;51.902;8.212;2022-10-19T00:39:36;7.28;;;3.42;;
71629;SDS011;59479;51.902;8.212;2022-10-19T00:42:02;7.13;;;4.00;;
71629;SDS011;59479;51.902;8.212;2022-10-19T00:46:53;8.37;;;3.40;;
71629;SDS011;59479;51.902;8.212;2022-10-19T00:49:23;8.53;;;3.60;;
71629;SDS011;59479;51.902;8.212;2022-10-19T00:51:52;7.70;;;3.08;;
71629;SDS011;59479;51.902;8.212;2022-10-19T00:54:21;9.15;;;3.80;;
71629;SDS011;59479;51.902;8.212;2022-10-19T00:56:48;10.32;;;3.45;;
71629;SDS011;59479;51.902;8.212;2022-10-19T00:59:17;6.60;;;3.17;;
71629;SDS011;59479;51.902;8.212;2022-10-19T01:01:45;5.83;;;3.30;;
71629;SDS011;59479;51.902;8.212;2022-10-19T01:04:11;7.45;;;3.30;;
71629;SDS011;59479;51.902;8.212;2022-10-19T01:06:38;7.40;;;2.92;;
71629;SDS011;59479;51.902;8.212;2022-10-19T01:09:04;8.30;;;3.70;;
71629;SDS011;59479;51.902;8.212;2022-10-19T01:22:29;5.43;;;2.78;;
71629;SDS011;59479;51.902;8.212;2022-10-19T01:25:08;7.53;;;3.25;;
71629;SDS011;59479;51.902;8.212;2022-10-19T01:27:59;8.07;;;3.43;;
71629;SDS011;59479;51.902;8.212;2022-10-19T01:30:44;7.07;;;3.25;;
71629;SDS011;59479;51.902;8.212;2022-10-19T01:36:22;10.85;;;4.63;;
71629;SDS011;59479;51.902;8.212;2022-10-19T01:44:16;9.23;;;3.50;;
71629;SDS011;59479;51.902;8.212;2022-10-19T01:46:51;7.63;;;3.00;;
71629;SDS011;59479;51.902;8.212;2022-10-19T01:51:55;9.60;;;3.45;;
71629;SDS011;59479;51.902;8.212;2022-10-19T01:54:23;7.13;;;3.67;;
71629;SDS011;59479;51.902;8.212;2022-10-19T01:56:53;6.57;;;3.15;;
71629;SDS011;59479;51.902;8.212;2022-10-19T01:59:20;6.90;;;3.42;;
71629;SDS011;59479;51.902;8.212;2022-10-19T02:01:46;7.40;;;3.28;;
71629;SDS011;59479;51.902;8.212;2022-10-19T02:04:16;7.20;;;3.10;;
71629;SDS011;59479;51.902;8.212;2022-10-19T02:06:43;6.77;;;3.63;;
71629;SDS011;59479;51.902;8.212;2022-10-19T02:09:09;5.00;;;3.25;;
71629;SDS011;59479;51.902;8.212;2022-10-19T02:11:34;7.97;;;3.50;;
71629;SDS011;59479;51.902;8.212;2022-10-19T02:14:05;6.70;;;3.38;;
71629;SDS011;59479;51.902;8.212;2022-10-19T02:16:39;6.73;;;3.40;;
71629;SDS011;59479;51.902;8.212;2022-10-19T02:19:09;10.77;;;3.30;;
71629;SDS011;59479;51.902;8.212;2022-10-19T02:21:38;7.20;;;3.60;;
71629;SDS011;59479;51.902;8.212;2022-10-19T02:24:03;8.93;;;3.30;;
71629;SDS011;59479;51.902;8.212;2022-10-19T02:26:29;6.93;;;3.30;;
71629;SDS011;59479;51.902;8.212;2022-10-19T02:28:54;4.78;;;2.88;;
71629;SDS011;59479;51.902;8.212;2022-10-19T02:31:20;5.70;;;3.20;;
71629;SDS011;59479;51.902;8.212;2022-10-19T02:33:46;6.78;;;3.72;;
71629;SDS011;59479;51.902;8.212;2022-10-19T02:36:11;6.70;;;3.30;;
71629;SDS011;59479;51.902;8.212;2022-10-19T02:38:37;8.73;;;3.20;;
71629;SDS011;59479;51.902;8.212;2022-10-19T02:41:05;5.60;;;3.50;;
71629;SDS011;59479;51.902;8.212;2022-10-19T02:43:37;6.60;;;3.45;;
71629;SDS011;59479;51.902;8.212;2022-10-19T02:46:07;7.05;;;3.65;;
71629;SDS011;59479;51.902;8.212;2022-10-19T02:48:37;7.82;;;3.42;;
71629;SDS011;59479;51.902;8.212;2022-10-19T02:51:05;7.28;;;3.30;;
71629;SDS011;59479;51.902;8.212;2022-10-19T02:53:30;7.23;;;3.20;;
71629;SDS011;59479;51.902;8.212;2022-10-19T02:55:55;6.90;;;3.17;;
71629;SDS011;59479;51.902;8.212;2022-10-19T02:58:21;6.00;;;3.70;;
71629;SDS011;59479;51.902;8.212;2022-10-19T03:00:46;6.60;;;3.37;;
71629;SDS011;59479;51.902;8.212;2022-10-19T03:03:11;8.50;;;3.43;;
71629;SDS011;59479;51.902;8.212;2022-10-19T03:05:37;7.20;;;3.50;;
71629;SDS011;59479;51.902;8.212;2022-10-19T03:08:02;11.70;;;3.63;;
71629;SDS011;59479;51.902;8.212;2022-10-19T03:10:27;7.38;;;3.20;;
71629;SDS011;59479;51.902;8.212;2022-10-19T03:12:53;8.00;;;4.27;;
71629;SDS011;59479;51.902;8.212;2022-10-19T03:15:21;9.27;;;4.23;;
71629;SDS011;59479;51.902;8.212;2022-10-19T03:17:51;7.45;;;3.60;;
71629;SDS011;59479;51.902;8.212;2022-10-19T03:20:17;8.63;;;3.75;;
71629;SDS011;59479;51.902;8.212;2022-10-19T03:22:42;11.30;;;3.43;;
71629;SDS011;59479;51.902;8.212;2022-10-19T03:25:07;9.97;;;4.20;;
71629;SDS011;59479;51.902;8.212;2022-10-19T03:27:33;13.45;;;4.10;;
71629;SDS011;59479;51.902;8.212;2022-10-19T03:29:58;11.13;;;3.77;;
71629;SDS011;59479;51.902;8.212;2022-10-19T03:32:23;13.33;;;4.80;;
71629;SDS011;59479;51.902;8.212;2022-10-19T03:34:49;9.67;;;4.40;;
71629;SDS011;59479;51.902;8.212;2022-10-19T03:37:14;13.53;;;4.30;;
71629;SDS011;59479;51.902;8.212;2022-10-19T03:39:39;12.40;;;4.83;;
71629;SDS011;59479;51.902;8.212;2022-10-19T03:42:05;12.07;;;4.87;;
71629;SDS011;59479;51.902;8.212;2022-10-19T03:44:30;14.80;;;4.30;;
71629;SDS011;59479;51.902;8.212;2022-10-19T03:46:55;12.57;;;4.30;;
71629;SDS011;59479;51.902;8.212;2022-10-19T03:49:21;12.57;;;4.63;;
71629;SDS011;59479;51.902;8.212;2022-10-19T03:51:46;10.60;;;4.10;;
71629;SDS011;59479;51.902;8.212;2022-10-19T03:54:12;11.73;;;5.10;;
71629;SDS011;59479;51.902;8.212;2022-10-19T03:56:39;9.43;;;4.63;;
71629;SDS011;59479;51.902;8.212;2022-10-19T03:59:05;11.50;;;4.07;;
71629;SDS011;59479;51.902;8.212;2022-10-19T04:01:37;8.75;;;3.90;;
71629;SDS011;59479;51.902;8.212;2022-10-19T04:04:06;7.82;;;3.80;;
71629;SDS011;59479;51.902;8.212;2022-10-19T04:06:37;8.27;;;4.05;;
71629;SDS011;59479;51.902;8.212;2022-10-19T04:09:04;6.93;;;3.67;;
71629;SDS011;59479;51.902;8.212;2022-10-19T04:11:31;14.02;;;4.03;;
71629;SDS011;59479;51.902;8.212;2022-10-19T04:13:57;9.07;;;4.45;;
71629;SDS011;59479;51.902;8.212;2022-10-19T04:16:24;7.50;;;3.95;;
71629;SDS011;59479;51.902;8.212;2022-10-19T04:18:51;11.05;;;4.18;;
71629;SDS011;59479;51.902;8.212;2022-10-19T04:21:21;9.77;;;4.23;;
71629;SDS011;59479;51.902;8.212;2022-10-19T04:23:52;7.72;;;4.25;;
71629;SDS011;59479;51.902;8.212;2022-10-19T04:26:21;8.43;;;3.83;;
71629;SDS011;59479;51.902;8.212;2022-10-19T04:28:46;7.33;;;3.97;;
71629;SDS011;59479;51.902;8.212;2022-10-19T04:31:12;7.20;;;3.78;;
71629;SDS011;59479;51.902;8.212;2022-10-19T04:33:37;7.67;;;3.80;;
71629;SDS011;59479;51.902;8.212;2022-10-19T04:36:06;8.13;;;5.50;;
71629;SDS011;59479;51.902;8.212;2022-10-19T04:38:34;8.20;;;4.40;;
71629;SDS011;59479;51.902;8.212;2022-10-19T04:41:00;6.53;;;3.90;;
71629;SDS011;59479;51.902;8.212;2022-10-19T04:43:30;7.22;;;4.10;;
71629;SDS011;59479;51.902;8.212;2022-10-19T04:45:56;7.90;;;3.80;;
71629;SDS011;59479;51.902;8.212;2022-10-19T04:48:21;6.97;;;4.23;;
71629;SDS011;59479;51.902;8.212;2022-10-19T04:50:46;7.80;;;4.23;;
71629;SDS011;59479;51.902;8.212;2022-10-19T04:53:11;7.30;;;4.47;;
71629;SDS011;59479;51.902;8.212;2022-10-19T04:55:40;8.07;;;4.10;;
71629;SDS011;59479;51.902;8.212;2022-10-19T04:58:06;6.68;;;4.05;;
71629;SDS011;59479;51.902;8.212;2022-10-19T05:00:31;7.27;;;3.90;;
71629;SDS011;59479;51.902;8.212;2022-10-19T05:02:57;8.37;;;4.50;;
71629;SDS011;59479;51.902;8.212;2022-10-19T05:05:22;7.57;;;4.57;;
71629;SDS011;59479;51.902;8.212;2022-10-19T05:07:48;9.27;;;4.40;;
71629;SDS011;59479;51.902;8.212;2022-10-19T05:10:13;7.77;;;4.70;;
71629;SDS011;59479;51.902;8.212;2022-10-19T05:12:39;7.20;;;4.35;;
71629;SDS011;59479;51.902;8.212;2022-10-19T05:15:04;7.30;;;4.38;;
71629;SDS011;59479;51.902;8.212;2022-10-19T05:17:30;6.67;;;4.13;;
71629;SDS011;59479;51.902;8.212;2022-10-19T05:19:56;8.68;;;4.40;;
71629;SDS011;59479;51.902;8.212;2022-10-19T05:22:21;8.47;;;5.10;;
71629;SDS011;59479;51.902;8.212;2022-10-19T05:24:47;8.17;;;4.63;;
71629;SDS011;59479;51.902;8.212;2022-10-19T05:27:12;8.70;;;5.10;;
71629;SDS011;59479;51.902;8.212;2022-10-19T05:29:37;8.70;;;4.60;;
71629;SDS011;59479;51.902;8.212;2022-10-19T05:32:02;8.52;;;4.60;;
71629;SDS011;59479;51.902;8.212;2022-10-19T05:34:28;8.00;;;4.53;;
71629;SDS011;59479;51.902;8.212;2022-10-19T05:36:53;9.00;;;4.23;;
71629;SDS011;59479;51.902;8.212;2022-10-19T05:39:19;7.30;;;4.53;;
71629;SDS011;59479;51.902;8.212;2022-10-19T05:41:45;7.47;;;4.30;;
71629;SDS011;59479;51.902;8.212;2022-10-19T05:44:15;11.50;;;4.90;;
71629;SDS011;59479;51.902;8.212;2022-10-19T05:46:42;8.20;;;4.50;;
71629;SDS011;59479;51.902;8.212;2022-10-19T05:49:08;7.88;;;4.60;;
71629;SDS011;59479;51.902;8.212;2022-10-19T05:51:35;6.93;;;4.43;;
71629;SDS011;59479;51.902;8.212;2022-10-19T05:54:00;7.83;;;4.87;;
71629;SDS011;59479;51.902;8.212;2022-10-19T05:56:26;7.77;;;4.80;;
71629;SDS011;59479;51.902;8.212;2022-10-19T05:58:56;7.88;;;4.75;;
71629;SDS011;59479;51.902;8.212;2022-10-19T06:01:25;7.17;;;4.50;;
71629;SDS011;59479;51.902;8.212;2022-10-19T06:03:52;6.38;;;4.07;;
71629;SDS011;59479;51.902;8.212;2022-10-19T06:06:19;7.63;;;4.40;;
71629;SDS011;59479;51.902;8.212;2022-10-19T06:08:45;9.00;;;4.70;;
71629;SDS011;59479;51.902;8.212;2022-10-19T06:11:15;8.40;;;4.87;;
71629;SDS011;59479;51.902;8.212;2022-10-19T06:13:43;11.10;;;5.32;;
71629;SDS011;59479;51.902;8.212;2022-10-19T06:16:10;9.85;;;5.40;;
71629;SDS011;59479;51.902;8.212;2022-10-19T06:18:37;11.05;;;5.70;;
71629;SDS011;59479;51.902;8.212;2022-10-19T06:21:04;8.00;;;5.27;;
71629;SDS011;59479;51.902;8.212;2022-10-19T06:23:37;10.10;;;5.40;;
71629;SDS011;59479;51.902;8.212;2022-10-19T06:26:04;10.25;;;5.40;;
71629;SDS011;59479;51.902;8.212;2022-10-19T06:28:31;9.07;;;5.07;;
71629;SDS011;59479;51.902;8.212;2022-10-19T06:30:57;8.70;;;5.72;;
71629;SDS011;59479;51.902;8.212;2022-10-19T06:33:24;9.50;;;5.30;;
71629;SDS011;59479;51.902;8.212;2022-10-19T06:35:49;7.78;;;5.10;;
71629;SDS011;59479;51.902;8.212;2022-10-19T06:38:15;11.73;;;6.13;;
71629;SDS011;59479;51.902;8.212;2022-10-19T06:40:40;10.67;;;6.10;;
71629;SDS011;59479;51.902;8.212;2022-10-19T06:43:05;11.77;;;5.70;;
71629;SDS011;59479;51.902;8.212;2022-10-19T06:45:31;7.90;;;5.17;;
71629;SDS011;59479;51.902;8.212;2022-10-19T06:47:56;10.30;;;4.93;;
71629;SDS011;59479;51.902;8.212;2022-10-19T06:50:24;10.18;;;5.70;;
71629;SDS011;59479;51.902;8.212;2022-10-19T06:52:49;9.02;;;5.22;;
71629;SDS011;59479;51.902;8.212;2022-10-19T06:55:15;9.80;;;6.07;;
71629;SDS011;59479;51.902;8.212;2022-10-19T06:57:41;10.13;;;6.10;;
71629;SDS011;59479;51.902;8.212;2022-10-19T07:00:07;8.25;;;5.88;;
71629;SDS011;59479;51.902;8.212;2022-10-19T07:02:33;9.32;;;5.50;;
71629;SDS011;59479;51.902;8.212;2022-10-19T07:04:58;9.87;;;5.60;;
71629;SDS011;59479;51.902;8.212;2022-10-19T07:07:24;10.63;;;5.87;;
71629;SDS011;59479;51.902;8.212;2022-10-19T07:09:49;9.10;;;5.00;;
71629;SDS011;59479;51.902;8.212;2022-10-19T07:12:14;11.10;;;6.30;;
71629;SDS011;59479;51.902;8.212;2022-10-19T07:14:40;10.00;;;5.30;;
71629;SDS011;59479;51.902;8.212;2022-10-19T07:17:05;9.37;;;5.63;;
71629;SDS011;59479;51.902;8.212;2022-10-19T07:19:31;9.98;;;5.80;;
71629;SDS011;59479;51.902;8.212;2022-10-19T07:21:57;8.45;;;5.93;;
71629;SDS011;59479;51.902;8.212;2022-10-19T07:24:23;10.73;;;5.82;;
71629;SDS011;59479;51.902;8.212;2022-10-19T07:26:49;10.40;;;6.05;;
71629;SDS011;59479;51.902;8.212;2022-10-19T07:29:14;10.03;;;5.80;;
71629;SDS011;59479;51.902;8.212;2022-10-19T07:31:39;10.23;;;6.80;;
71629;SDS011;59479;51.902;8.212;2022-10-19T07:34:05;9.52;;;6.68;;
71629;SDS011;59479;51.902;8.212;2022-10-19T07:36:32;12.02;;;5.97;;
71629;SDS011;59479;51.902;8.212;2022-10-19T07:39:00;10.63;;;6.57;;
71629;SDS011;59479;51.902;8.212;2022-10-19T07:41:26;9.80;;;5.85;;
71629;SDS011;59479;51.902;8.212;2022-10-19T07:43:52;9.88;;;6.63;;
71629;SDS011;59479;51.902;8.212;2022-10-19T07:46:22;12.63;;;6.13;;
71629;SDS011;59479;51.902;8.212;2022-10-19T07:48:49;9.50;;;6.32;;
71629;SDS011;59479;51.902;8.212;2022-10-19T07:51:15;10.10;;;6.50;;
71629;SDS011;59479;51.902;8.212;2022-10-19T07:53:42;11.60;;;7.05;;
71629;SDS011;59479;51.902;8.212;2022-10-19T07:56:08;10.02;;;6.50;;
71629;SDS011;59479;51.902;8.212;2022-10-19T07:58:36;11.85;;;7.30;;
71629;SDS011;59479;51.902;8.212;2022-10-19T08:01:15;10.77;;;6.85;;
71629;SDS011;59479;51.902;8.212;2022-10-19T08:03:43;11.20;;;6.50;;
71629;SDS011;59479;51.902;8.212;2022-10-19T08:06:10;13.05;;;7.35;;
71629;SDS011;59479;51.902;8.212;2022-10-19T08:08:37;14.23;;;7.60;;
71629;SDS011;59479;51.902;8.212;2022-10-19T08:11:07;14.18;;;7.60;;
71629;SDS011;59479;51.902;8.212;2022-10-19T08:13:33;12.00;;;7.90;;
71629;SDS011;59479;51.902;8.212;2022-10-19T08:15:58;14.05;;;7.97;;
71629;SDS011;59479;51.902;8.212;2022-10-19T08:18:23;17.17;;;8.67;;
71629;SDS011;59479;51.902;8.212;2022-10-19T08:20:49;16.00;;;8.73;;
71629;SDS011;59479;51.902;8.212;2022-10-19T08:23:15;18.67;;;9.07;;
71629;SDS011;59479;51.902;8.212;2022-10-19T08:25:40;17.55;;;9.50;;
71629;SDS011;59479;51.902;8.212;2022-10-19T08:28:05;19.67;;;10.10;;
71629;SDS011;59479;51.902;8.212;2022-10-19T08:30:33;19.00;;;10.43;;
71629;SDS011;59479;51.902;8.212;2022-10-19T08:32:59;19.75;;;10.00;;
71629;SDS011;59479;51.902;8.212;2022-10-19T08:35:24;19.70;;;10.07;;
71629;SDS011;59479;51.902;8.212;2022-10-19T08:37:49;19.30;;;9.57;;
71629;SDS011;59479;51.902;8.212;2022-10-19T08:40:20;19.23;;;9.30;;
71629;SDS011;59479;51.902;8.212;2022-10-19T08:42:52;19.45;;;9.82;;
71629;SDS011;59479;51.902;8.212;2022-10-19T08:45:39;22.65;;;9.95;;
71629;SDS011;59479;51.902;8.212;2022-10-19T08:50:50;19.27;;;10.00;;
71629;SDS011;59479;51.902;8.212;2022-10-19T08:53:21;20.10;;;10.80;;
71629;SDS011;59479;51.902;8.212;2022-10-19T09:09:41;17.05;;;8.85;;
71629;SDS011;59479;51.902;8.212;2022-10-19T09:12:08;18.40;;;8.63;;
71629;SDS011;59479;51.902;8.212;2022-10-19T09:14:43;18.43;;;8.70;;
71629;SDS011;59479;51.902;8.212;2022-10-19T09:17:12;15.77;;;8.10;;
71629;SDS011;59479;51.902;8.212;2022-10-19T09:19:39;17.58;;;9.13;;
71629;SDS011;59479;51.902;8.212;2022-10-19T09:25:00;17.20;;;8.18;;
71629;SDS011;59479;51.902;8.212;2022-10-19T09:27:36;17.70;;;8.00;;
71629;SDS011;59479;51.902;8.212;2022-10-19T09:30:05;14.85;;;7.90;;
71629;SDS011;59479;51.902;8.212;2022-10-19T09:32:39;13.93;;;7.80;;
71629;SDS011;59479;51.902;8.212;2022-10-19T09:38:06;16.85;;;8.02;;
71629;SDS011;59479;51.902;8.212;2022-10-19T09:41:35;14.65;;;7.72;;
71629;SDS011;59479;51.902;8.212;2022-10-19T09:44:00;16.07;;;7.43;;
71629;SDS011;59479;51.902;8.212;2022-10-19T09:49:42;12.52;;;6.13;;
71629;SDS011;59479;51.902;8.212;2022-10-19T09:52:39;13.38;;;6.32;;
71629;SDS011;59479;51.902;8.212;2022-10-19T10:00:55;10.17;;;4.27;;
71629;SDS011;59479;51.902;8.212;2022-10-19T10:03:43;12.32;;;4.20;;
71629;SDS011;59479;51.902;8.212;2022-10-19T10:06:32;8.40;;;4.10;;
71629;SDS011;59479;51.902;8.212;2022-10-19T10:09:00;7.35;;;3.35;;
71629;SDS011;59479;51.902;8.212;2022-10-19T10:11:35;9.05;;;4.28;;
71629;SDS011;59479;51.902;8.212;2022-10-19T10:14:22;6.50;;;3.13;;
71629;SDS011;59479;51.902;8.212;2022-10-19T10:16:55;7.10;;;3.00;;
71629;SDS011;59479;51.902;8.212;2022-10-19T10:19:26;6.43;;;2.60;;
71629;SDS011;59479;51.902;8.212;2022-10-19T10:21:56;7.32;;;2.40;;
71629;SDS011;59479;51.902;8.212;2022-10-19T10:31:12;3.72;;;1.75;;
71629;SDS011;59479;51.902;8.212;2022-10-19T10:34:01;6.47;;;3.30;;
71629;SDS011;59479;51.902;8.212;2022-10-19T10:36:52;8.73;;;2.20;;
71629;SDS011;59479;51.902;8.212;2022-10-19T10:39:25;4.83;;;2.13;;
71629;SDS011;59479;51.902;8.212;2022-10-19T10:42:16;6.57;;;2.20;;
71629;SDS011;59479;51.902;8.212;2022-10-19T10:45:26;6.72;;;2.50;;
71629;SDS011;59479;51.902;8.212;2022-10-19T10:54:28;6.90;;;2.20;;
71629;SDS011;59479;51.902;8.212;2022-10-19T10:57:40;5.45;;;2.95;;
71629;SDS011;59479;51.902;8.212;2022-10-19T11:03:07;5.38;;;2.55;;
71629;SDS011;59479;51.902;8.212;2022-10-19T11:05:40;7.40;;;2.20;;
71629;SDS011;59479;51.902;8.212;2022-10-19T11:08:13;5.30;;;2.13;;
71629;SDS011;59479;51.902;8.212;2022-10-19T11:10:53;6.13;;;2.03;;
71629;SDS011;59479;51.902;8.212;2022-10-19T11:21:30;7.72;;;2.30;;
71629;SDS011;59479;51.902;8.212;2022-10-19T11:27:11;5.68;;;2.25;;
71629;SDS011;59479;51.902;8.212;2022-10-19T11:37:53;6.03;;;2.33;;
71629;SDS011;59479;51.902;8.212;2022-10-19T11:40:44;6.18;;;2.50;;
71629;SDS011;59479;51.902;8.212;2022-10-19T11:57:09;4.63;;;1.90;;
71629;SDS011;59479;51.902;8.212;2022-10-19T12:02:22;5.38;;;2.35;;
71629;SDS011;59479;51.902;8.212;2022-10-19T12:04:53;5.40;;;2.08;;
71629;SDS011;59479;51.902;8.212;2022-10-19T12:07:40;5.82;;;2.00;;
71629;SDS011;59479;51.902;8.212;2022-10-19T12:10:26;4.53;;;2.05;;
71629;SDS011;59479;51.902;8.212;2022-10-19T12:12:57;6.20;;;1.70;;
71629;SDS011;59479;51.902;8.212;2022-10-19T12:15:31;5.35;;;2.03;;
71629;SDS011;59479;51.902;8.212;2022-10-19T12:18:27;6.97;;;2.50;;
71629;SDS011;59479;51.902;8.212;2022-10-19T12:20:58;6.28;;;2.00;;
71629;SDS011;59479;51.902;8.212;2022-10-19T12:23:27;11.02;;;2.17;;
71629;SDS011;59479;51.902;8.212;2022-10-19T12:25:57;4.33;;;1.80;;
71629;SDS011;59479;51.902;8.212;2022-10-19T12:28:27;4.90;;;1.98;;
71629;SDS011;59479;51.902;8.212;2022-10-19T12:30:58;6.38;;;2.38;;
71629;SDS011;59479;51.902;8.212;2022-10-19T12:33:30;9.32;;;2.13;;
71629;SDS011;59479;51.902;8.212;2022-10-19T12:36:21;4.88;;;1.90;;
71629;SDS011;59479;51.902;8.212;2022-10-19T12:39:01;6.33;;;2.30;;
71629;SDS011;59479;51.902;8.212;2022-10-19T12:41:47;5.90;;;1.95;;
71629;SDS011;59479;51.902;8.212;2022-10-19T12:44:42;4.00;;;2.20;;
71629;SDS011;59479;51.902;8.212;2022-10-19T12:47:29;6.45;;;2.10;;
71629;SDS011;59479;51.902;8.212;2022-10-19T12:49:55;7.30;;;1.83;;
71629;SDS011;59479;51.902;8.212;2022-10-19T12:52:37;4.90;;;1.83;;
71629;SDS011;59479;51.902;8.212;2022-10-19T12:57:35;7.60;;;2.10;;
71629;SDS011;59479;51.902;8.212;2022-10-19T13:00:04;5.88;;;1.77;;
71629;SDS011;59479;51.902;8.212;2022-10-19T13:02:43;4.65;;;2.38;;
71629;SDS011;59479;51.902;8.212;2022-10-19T13:05:18;5.90;;;1.95;;
71629;SDS011;59479;51.902;8.212;2022-10-19T13:07:46;8.45;;;2.20;;
71629;SDS011;59479;51.902;8.212;2022-10-19T13:10:17;6.10;;;1.80;;
71629;SDS011;59479;51.902;8.212;2022-10-19T13:12:46;4.78;;;1.70;;
71629;SDS011;59479;51.902;8.212;2022-10-19T13:19:00;4.30;;;1.60;;
71629;SDS011;59479;51.902;8.212;2022-10-19T13:24:34;6.95;;;1.80;;
71629;SDS011;59479;51.902;8.212;2022-10-19T13:29:26;4.60;;;1.83;;
71629;SDS011;59479;51.902;8.212;2022-10-19T13:40:37;5.35;;;1.88;;
71629;SDS011;59479;51.902;8.212;2022-10-19T13:43:23;4.15;;;1.60;;
71629;SDS011;59479;51.902;8.212;2022-10-19T13:54:27;6.75;;;2.00;;
71629;SDS011;59479;51.902;8.212;2022-10-19T14:08:16;6.20;;;1.90;;
71629;SDS011;59479;51.902;8.212;2022-10-19T14:11:10;4.95;;;1.80;;
71629;SDS011;59479;51.902;8.212;2022-10-19T14:13:38;4.97;;;2.80;;
71629;SDS011;59479;51.902;8.212;2022-10-19T14:16:04;5.40;;;2.53;;
71629;SDS011;59479;51.902;8.212;2022-10-19T14:18:31;5.88;;;2.22;;
71629;SDS011;59479;51.902;8.212;2022-10-19T14:20:59;5.07;;;1.83;;
71629;SDS011;59479;51.902;8.212;2022-10-19T14:23:27;5.00;;;1.63;;
71629;SDS011;59479;51.902;8.212;2022-10-19T14:25:56;4.70;;;2.17;;
71629;SDS011;59479;51.902;8.212;2022-10-19T14:28:23;6.55;;;1.88;;
71629;SDS011;59479;51.902;8.212;2022-10-19T14:31:02;5.75;;;2.00;;
71629;SDS011;59479;51.902;8.212;2022-10-19T14:33:31;5.68;;;1.83;;
71629;SDS011;59479;51.902;8.212;2022-10-19T14:35:58;5.88;;;2.28;;
71629;SDS011;59479;51.902;8.212;2022-10-19T14:40:53;5.63;;;1.80;;
71629;SDS011;59479;51.902;8.212;2022-10-19T14:43:21;5.80;;;2.13;;
71629;SDS011;59479;51.902;8.212;2022-10-19T14:48:42;3.95;;;2.10;;
71629;SDS011;59479;51.902;8.212;2022-10-19T14:51:18;4.47;;;2.13;;
71629;SDS011;59479;51.902;8.212;2022-10-19T14:54:40;5.03;;;1.97;;
71629;SDS011;59479;51.902;8.212;2022-10-19T15:01:56;10.57;;;2.08;;
71629;SDS011;59479;51.902;8.212;2022-10-19T15:04:25;4.43;;;2.28;;
71629;SDS011;59479;51.902;8.212;2022-10-19T15:06:53;6.27;;;2.23;;
71629;SDS011;59479;51.902;8.212;2022-10-19T15:09:25;4.95;;;2.40;;
71629;SDS011;59479;51.902;8.212;2022-10-19T15:11:54;5.10;;;2.22;;
71629;SDS011;59479;51.902;8.212;2022-10-19T15:14:30;4.60;;;2.30;;
71629;SDS011;59479;51.902;8.212;2022-10-19T15:16:57;4.50;;;2.37;;
71629;SDS011;59479;51.902;8.212;2022-10-19T15:19:29;5.13;;;2.30;;
71629;SDS011;59479;51.902;8.212;2022-10-19T15:27:30;7.37;;;2.50;;
71629;SDS011;59479;51.902;8.212;2022-10-19T15:30:00;8.02;;;2.50;;
71629;SDS011;59479;51.902;8.212;2022-10-19T15:32:28;5.90;;;2.20;;
71629;SDS011;59479;51.902;8.212;2022-10-19T15:34:56;4.80;;;2.08;;
71629;SDS011;59479;51.902;8.212;2022-10-19T15:37:23;7.47;;;2.60;;
71629;SDS011;59479;51.902;8.212;2022-10-19T15:39:49;5.47;;;1.90;;
71629;SDS011;59479;51.902;8.212;2022-10-19T15:50:44;5.63;;;2.13;;
71629;SDS011;59479;51.902;8.212;2022-10-19T15:53:17;6.50;;;2.05;;
71629;SDS011;59479;51.902;8.212;2022-10-19T15:55:43;5.22;;;2.30;;
71629;SDS011;59479;51.902;8.212;2022-10-19T15:58:09;8.43;;;3.07;;
71629;SDS011;59479;51.902;8.212;2022-10-19T16:00:35;6.05;;;2.17;;
71629;SDS011;59479;51.902;8.212;2022-10-19T16:03:01;5.70;;;1.98;;
71629;SDS011;59479;51.902;8.212;2022-10-19T16:05:26;4.13;;;1.83;;
71629;SDS011;59479;51.902;8.212;2022-10-19T16:07:52;4.47;;;2.00;;
71629;SDS011;59479;51.902;8.212;2022-10-19T16:10:19;4.83;;;1.83;;
71629;SDS011;59479;51.902;8.212;2022-10-19T16:12:46;4.93;;;2.03;;
71629;SDS011;59479;51.902;8.212;2022-10-19T16:15:12;7.00;;;2.03;;
71629;SDS011;59479;51.902;8.212;2022-10-19T16:17:41;7.18;;;1.70;;
71629;SDS011;59479;51.902;8.212;2022-10-19T16:20:08;5.78;;;1.80;;
71629;SDS011;59479;51.902;8.212;2022-10-19T16:22:34;4.57;;;1.80;;
71629;SDS011;59479;51.902;8.212;2022-10-19T16:24:59;7.43;;;2.20;;
71629;SDS011;59479;51.902;8.212;2022-10-19T16:27:25;3.67;;;1.83;;
71629;SDS011;59479;51.902;8.212;2022-10-19T16:29:50;8.33;;;2.10;;
71629;SDS011;59479;51.902;8.212;2022-10-19T16:32:15;6.83;;;2.03;;
71629;SDS011;59479;51.902;8.212;2022-10-19T16:34:40;5.37;;;2.50;;
71629;SDS011;59479;51.902;8.212;2022-10-19T16:37:06;6.70;;;2.77;;
71629;SDS011;59479;51.902;8.212;2022-10-19T16:39:31;9.27;;;3.67;;
71629;SDS011;59479;51.902;8.212;2022-10-19T16:41:56;6.53;;;3.83;;
71629;SDS011;59479;51.902;8.212;2022-10-19T16:44:22;7.10;;;3.22;;
71629;SDS011;59479;51.902;8.212;2022-10-19T16:46:47;6.23;;;3.20;;
71629;SDS011;59479;51.902;8.212;2022-10-19T16:49:16;5.60;;;3.33;;
71629;SDS011;59479;51.902;8.212;2022-10-19T16:51:41;6.05;;;3.42;;
71629;SDS011;59479;51.902;8.212;2022-10-19T16:54:07;6.37;;;3.00;;
71629;SDS011;59479;51.902;8.212;2022-10-19T16:56:34;5.85;;;3.25;;
71629;SDS011;59479;51.902;8.212;2022-10-19T16:59:04;5.13;;;2.90;;
71629;SDS011;59479;51.902;8.212;2022-10-19T17:01:30;6.95;;;3.17;;
71629;SDS011;59479;51.902;8.212;2022-10-19T17:03:58;9.50;;;3.90;;
71629;SDS011;59479;51.902;8.212;2022-10-19T17:06:24;6.85;;;3.55;;
71629;SDS011;59479;51.902;8.212;2022-10-19T17:08:50;6.45;;;4.30;;
71629;SDS011;59479;51.902;8.212;2022-10-19T17:11:23;9.80;;;4.18;;
71629;SDS011;59479;51.902;8.212;2022-10-19T17:13:51;8.18;;;4.20;;
71629;SDS011;59479;51.902;8.212;2022-10-19T17:16:18;7.67;;;4.27;;
71629;SDS011;59479;51.902;8.212;2022-10-19T17:18:45;7.55;;;4.32;;
71629;SDS011;59479;51.902;8.212;2022-10-19T17:21:12;7.43;;;4.53;;
71629;SDS011;59479;51.902;8.212;2022-10-19T17:23:40;8.65;;;4.25;;
71629;SDS011;59479;51.902;8.212;2022-10-19T17:26:06;7.17;;;4.00;;
71629;SDS011;59479;51.902;8.212;2022-10-19T17:28:32;6.18;;;3.97;;
71629;SDS011;59479;51.902;8.212;2022-10-19T17:31:16;8.48;;;3.35;;
71629;SDS011;59479;51.902;8.212;2022-10-19T17:33:42;8.85;;;3.35;;
71629;SDS011;59479;51.902;8.212;2022-10-19T17:36:09;6.30;;;3.43;;
71629;SDS011;59479;51.902;8.212;2022-10-19T17:38:36;6.87;;;3.37;;
71629;SDS011;59479;51.902;8.212;2022-10-19T17:41:06;6.30;;;3.15;;
71629;SDS011;59479;51.902;8.212;2022-10-19T17:43:34;6.78;;;2.80;;
71629;SDS011;59479;51.902;8.212;2022-10-19T17:46:02;5.78;;;2.78;;
71629;SDS011;59479;51.902;8.212;2022-10-19T17:48:30;5.38;;;3.05;;
71629;SDS011;59479;51.902;8.212;2022-10-19T17:50:57;5.60;;;3.20;;